sensor_id;sensor_type;location;lat;lon;timestamp;P1;durP1;ratioP1;P2;durP2;ratioP2
27977;SDS011;15314;49.248;6.968;2024-03-17T13:50:25;10.65;;;9.93;;
27977;SDS011;15314;49.248;6.968;2024-03-17T13:51:45;11.55;;;10.77;;
27977;SDS011;15314;49.248;6.968;2024-03-17T13:53:04;10.70;;;10.10;;
27977;SDS011;15314;49.248;6.968;2024-03-17T13:54:24;11.65;;;10.85;;
27977;SDS011;15314;49.248;6.968;2024-03-17T13:55:43;11.35;;;10.60;;
27977;SDS011;15314;49.248;6.968;2024-03-17T13:57:05;11.32;;;10.45;;
27977;SDS011;15314;49.248;6.968;2024-03-17T13:58:27;10.63;;;10.02;;
27977;SDS011;15314;49.248;6.968;2024-03-17T13:59:49;11.02;;;10.32;;
27977;SDS011;15314;49.248;6.968;2024-03-17T14:01:11;9.65;;;9.15;;
27977;SDS011;15314;49.248;6.968;2024-03-17T14:02:31;8.85;;;8.35;;
27977;SDS011;15314;49.248;6.968;2024-03-17T14:03:53;9.23;;;8.82;;
27977;SDS011;15314;49.248;6.968;2024-03-17T14:05:14;8.88;;;8.38;;
27977;SDS011;15314;49.248;6.968;2024-03-17T14:06:37;8.82;;;8.43;;
27977;SDS011;15314;49.248;6.968;2024-03-17T14:07:59;9.38;;;8.80;;
27977;SDS011;15314;49.248;6.968;2024-03-17T14:09:19;8.93;;;8.50;;
27977;SDS011;15314;49.248;6.968;2024-03-17T14:10:38;8.77;;;8.35;;
27977;SDS011;15314;49.248;6.968;2024-03-17T14:12:07;9.02;;;8.63;;
27977;SDS011;15314;49.248;6.968;2024-03-17T14:13:27;8.90;;;8.50;;
27977;SDS011;15314;49.248;6.968;2024-03-17T14:14:46;8.63;;;8.23;;
27977;SDS011;15314;49.248;6.968;2024-03-17T14:16:06;8.80;;;8.30;;
27977;SDS011;15314;49.248;6.968;2024-03-17T14:17:26;9.27;;;8.77;;
27977;SDS011;15314;49.248;6.968;2024-03-17T14:18:45;9.15;;;8.57;;
27977;SDS011;15314;49.248;6.968;2024-03-17T14:20:05;9.52;;;9.02;;
27977;SDS011;15314;49.248;6.968;2024-03-17T14:21:28;9.88;;;9.27;;
27977;SDS011;15314;49.248;6.968;2024-03-17T14:22:48;8.30;;;7.90;;
27977;SDS011;15314;49.248;6.968;2024-03-17T14:24:12;9.52;;;8.93;;
27977;SDS011;15314;49.248;6.968;2024-03-17T14:25:32;9.07;;;8.60;;
27977;SDS011;15314;49.248;6.968;2024-03-17T14:26:51;9.38;;;8.70;;
27977;SDS011;15314;49.248;6.968;2024-03-17T14:28:10;9.60;;;8.98;;
27977;SDS011;15314;49.248;6.968;2024-03-17T14:29:30;9.73;;;9.23;;
27977;SDS011;15314;49.248;6.968;2024-03-17T14:30:49;9.10;;;8.63;;
27977;SDS011;15314;49.248;6.968;2024-03-17T14:32:10;9.00;;;8.50;;
27977;SDS011;15314;49.248;6.968;2024-03-17T14:33:31;9.60;;;9.20;;
27977;SDS011;15314;49.248;6.968;2024-03-17T14:34:50;9.73;;;9.10;;
27977;SDS011;15314;49.248;6.968;2024-03-17T14:36:09;9.65;;;9.07;;
27977;SDS011;15314;49.248;6.968;2024-03-17T14:37:28;9.30;;;8.77;;
27977;SDS011;15314;49.248;6.968;2024-03-17T14:40:38;10.13;;;9.50;;
27977;SDS011;15314;49.248;6.968;2024-03-17T14:41:58;9.20;;;8.70;;
27977;SDS011;15314;49.248;6.968;2024-03-17T14:43:19;9.95;;;9.38;;
27977;SDS011;15314;49.248;6.968;2024-03-17T14:44:38;9.05;;;8.55;;
27977;SDS011;15314;49.248;6.968;2024-03-17T14:45:58;9.07;;;8.57;;
27977;SDS011;15314;49.248;6.968;2024-03-17T14:47:17;8.77;;;8.18;;
27977;SDS011;15314;49.248;6.968;2024-03-17T14:48:36;9.07;;;8.57;;
27977;SDS011;15314;49.248;6.968;2024-03-17T14:49:55;8.93;;;8.50;;
27977;SDS011;15314;49.248;6.968;2024-03-17T14:51:14;9.15;;;8.65;;
27977;SDS011;15314;49.248;6.968;2024-03-17T14:52:34;9.75;;;9.15;;
27977;SDS011;15314;49.248;6.968;2024-03-17T14:53:53;9.85;;;9.20;;
27977;SDS011;15314;49.248;6.968;2024-03-17T14:55:15;10.35;;;9.75;;
27977;SDS011;15314;49.248;6.968;2024-03-17T14:56:35;9.50;;;8.88;;
27977;SDS011;15314;49.248;6.968;2024-03-17T14:57:55;9.20;;;8.60;;
27977;SDS011;15314;49.248;6.968;2024-03-17T14:59:14;9.95;;;9.35;;
27977;SDS011;15314;49.248;6.968;2024-03-17T15:00:37;9.90;;;9.40;;
27977;SDS011;15314;49.248;6.968;2024-03-17T15:01:57;9.32;;;8.88;;
27977;SDS011;15314;49.248;6.968;2024-03-17T15:03:16;9.18;;;8.77;;
27977;SDS011;15314;49.248;6.968;2024-03-17T15:04:35;10.38;;;9.57;;
27977;SDS011;15314;49.248;6.968;2024-03-17T15:05:54;10.40;;;9.70;;
27977;SDS011;15314;49.248;6.968;2024-03-17T15:07:13;9.00;;;8.52;;
27977;SDS011;15314;49.248;6.968;2024-03-17T15:08:32;8.82;;;8.32;;
27977;SDS011;15314;49.248;6.968;2024-03-17T15:09:52;8.88;;;8.38;;
27977;SDS011;15314;49.248;6.968;2024-03-17T15:11:11;9.63;;;9.13;;
27977;SDS011;15314;49.248;6.968;2024-03-17T15:12:30;8.73;;;8.32;;
27977;SDS011;15314;49.248;6.968;2024-03-17T15:13:49;9.25;;;8.55;;
27977;SDS011;15314;49.248;6.968;2024-03-17T15:15:08;8.80;;;8.20;;
27977;SDS011;15314;49.248;6.968;2024-03-17T15:16:29;9.20;;;8.60;;
27977;SDS011;15314;49.248;6.968;2024-03-17T15:17:48;8.90;;;8.40;;
27977;SDS011;15314;49.248;6.968;2024-03-17T15:19:09;13.57;;;12.52;;
27977;SDS011;15314;49.248;6.968;2024-03-17T15:20:28;12.88;;;11.88;;
27977;SDS011;15314;49.248;6.968;2024-03-17T15:21:47;9.10;;;8.57;;
27977;SDS011;15314;49.248;6.968;2024-03-17T15:23:07;8.75;;;8.35;;
27977;SDS011;15314;49.248;6.968;2024-03-17T15:24:26;9.70;;;8.98;;
27977;SDS011;15314;49.248;6.968;2024-03-17T15:25:45;9.57;;;8.98;;
27977;SDS011;15314;49.248;6.968;2024-03-17T15:27:05;9.45;;;8.63;;
27977;SDS011;15314;49.248;6.968;2024-03-17T15:28:24;9.07;;;8.48;;
27977;SDS011;15314;49.248;6.968;2024-03-17T15:29:43;9.50;;;9.00;;
27977;SDS011;15314;49.248;6.968;2024-03-17T15:31:03;10.18;;;9.43;;
27977;SDS011;15314;49.248;6.968;2024-03-17T15:32:23;9.73;;;9.13;;
27977;SDS011;15314;49.248;6.968;2024-03-17T15:33:42;10.25;;;9.43;;
27977;SDS011;15314;49.248;6.968;2024-03-17T15:35:01;8.90;;;8.50;;
27977;SDS011;15314;49.248;6.968;2024-03-17T15:36:20;9.57;;;8.85;;
27977;SDS011;15314;49.248;6.968;2024-03-17T15:37:40;10.07;;;9.30;;
27977;SDS011;15314;49.248;6.968;2024-03-17T15:39:00;9.55;;;9.00;;
27977;SDS011;15314;49.248;6.968;2024-03-17T15:40:19;9.30;;;8.90;;
27977;SDS011;15314;49.248;6.968;2024-03-17T15:41:39;8.95;;;8.55;;
27977;SDS011;15314;49.248;6.968;2024-03-17T15:42:58;10.25;;;9.50;;
27977;SDS011;15314;49.248;6.968;2024-03-17T15:44:17;8.98;;;8.48;;
27977;SDS011;15314;49.248;6.968;2024-03-17T15:45:39;9.55;;;9.05;;
27977;SDS011;15314;49.248;6.968;2024-03-17T15:47:00;9.43;;;9.00;;
27977;SDS011;15314;49.248;6.968;2024-03-17T15:48:21;9.32;;;8.82;;
27977;SDS011;15314;49.248;6.968;2024-03-17T15:49:41;9.32;;;8.93;;
27977;SDS011;15314;49.248;6.968;2024-03-17T15:51:00;8.93;;;8.52;;
27977;SDS011;15314;49.248;6.968;2024-03-17T15:52:20;9.13;;;8.43;;
27977;SDS011;15314;49.248;6.968;2024-03-17T15:53:39;8.35;;;7.88;;
27977;SDS011;15314;49.248;6.968;2024-03-17T15:54:58;8.63;;;8.23;;
27977;SDS011;15314;49.248;6.968;2024-03-17T15:56:18;10.15;;;9.30;;
27977;SDS011;15314;49.248;6.968;2024-03-17T15:57:37;8.75;;;8.35;;
27977;SDS011;15314;49.248;6.968;2024-03-17T15:58:58;9.60;;;9.00;;
27977;SDS011;15314;49.248;6.968;2024-03-17T16:00:20;9.18;;;8.68;;
27977;SDS011;15314;49.248;6.968;2024-03-17T16:01:39;8.80;;;8.35;;
27977;SDS011;15314;49.248;6.968;2024-03-17T16:03:00;8.52;;;8.07;;
27977;SDS011;15314;49.248;6.968;2024-03-17T16:04:20;8.93;;;8.20;;
27977;SDS011;15314;49.248;6.968;2024-03-17T16:05:43;9.50;;;8.98;;
27977;SDS011;15314;49.248;6.968;2024-03-17T16:07:06;9.27;;;8.68;;
27977;SDS011;15314;49.248;6.968;2024-03-17T16:08:27;9.10;;;8.63;;
27977;SDS011;15314;49.248;6.968;2024-03-17T16:09:50;9.30;;;8.63;;
27977;SDS011;15314;49.248;6.968;2024-03-17T16:11:11;9.25;;;8.63;;
27977;SDS011;15314;49.248;6.968;2024-03-17T16:12:35;9.07;;;8.63;;
27977;SDS011;15314;49.248;6.968;2024-03-17T16:13:55;8.55;;;8.15;;
27977;SDS011;15314;49.248;6.968;2024-03-17T16:15:16;9.15;;;8.70;;
27977;SDS011;15314;49.248;6.968;2024-03-17T16:16:36;9.18;;;8.60;;
27977;SDS011;15314;49.248;6.968;2024-03-17T16:17:58;9.20;;;8.50;;
27977;SDS011;15314;49.248;6.968;2024-03-17T16:19:17;9.43;;;8.82;;
27977;SDS011;15314;49.248;6.968;2024-03-17T16:22:08;8.77;;;8.20;;
27977;SDS011;15314;49.248;6.968;2024-03-17T16:23:31;8.55;;;8.15;;
27977;SDS011;15314;49.248;6.968;2024-03-17T16:24:53;9.98;;;9.38;;
27977;SDS011;15314;49.248;6.968;2024-03-17T16:26:12;9.75;;;9.15;;
27977;SDS011;15314;49.248;6.968;2024-03-17T16:27:31;8.35;;;8.05;;
27977;SDS011;15314;49.248;6.968;2024-03-17T16:28:50;8.00;;;7.57;;
27977;SDS011;15314;49.248;6.968;2024-03-17T16:30:10;9.25;;;8.68;;
27977;SDS011;15314;49.248;6.968;2024-03-17T16:31:34;8.57;;;8.18;;
27977;SDS011;15314;49.248;6.968;2024-03-17T16:32:53;8.27;;;7.88;;
27977;SDS011;15314;49.248;6.968;2024-03-17T16:34:13;8.50;;;8.10;;
27977;SDS011;15314;49.248;6.968;2024-03-17T16:35:35;8.82;;;8.32;;
27977;SDS011;15314;49.248;6.968;2024-03-17T16:36:56;8.52;;;8.07;;
27977;SDS011;15314;49.248;6.968;2024-03-17T16:38:16;9.20;;;8.55;;
27977;SDS011;15314;49.248;6.968;2024-03-17T16:39:38;8.77;;;8.32;;
27977;SDS011;15314;49.248;6.968;2024-03-17T16:40:58;8.48;;;7.97;;
27977;SDS011;15314;49.248;6.968;2024-03-17T16:42:20;8.95;;;8.35;;
27977;SDS011;15314;49.248;6.968;2024-03-17T16:45:19;8.70;;;8.20;;
27977;SDS011;15314;49.248;6.968;2024-03-17T16:48:24;7.95;;;7.55;;
27977;SDS011;15314;49.248;6.968;2024-03-17T16:49:43;8.63;;;8.23;;
27977;SDS011;15314;49.248;6.968;2024-03-17T16:51:02;8.68;;;8.20;;
27977;SDS011;15314;49.248;6.968;2024-03-17T16:52:22;8.10;;;7.70;;
27977;SDS011;15314;49.248;6.968;2024-03-17T16:53:43;8.40;;;8.00;;
27977;SDS011;15314;49.248;6.968;2024-03-17T16:55:02;8.43;;;7.93;;
27977;SDS011;15314;49.248;6.968;2024-03-17T16:56:24;8.80;;;8.30;;
27977;SDS011;15314;49.248;6.968;2024-03-17T16:57:43;7.95;;;7.55;;
27977;SDS011;15314;49.248;6.968;2024-03-17T16:59:02;8.57;;;8.07;;
27977;SDS011;15314;49.248;6.968;2024-03-17T17:00:23;9.07;;;8.52;;
27977;SDS011;15314;49.248;6.968;2024-03-17T17:03:03;9.10;;;8.40;;
27977;SDS011;15314;49.248;6.968;2024-03-17T17:04:22;8.45;;;7.75;;
27977;SDS011;15314;49.248;6.968;2024-03-17T17:05:44;8.40;;;7.90;;
27977;SDS011;15314;49.248;6.968;2024-03-17T17:07:03;7.88;;;7.47;;
27977;SDS011;15314;49.248;6.968;2024-03-17T17:08:23;8.32;;;7.70;;
27977;SDS011;15314;49.248;6.968;2024-03-17T17:09:42;7.93;;;7.45;;
27977;SDS011;15314;49.248;6.968;2024-03-17T17:11:01;8.63;;;8.02;;
27977;SDS011;15314;49.248;6.968;2024-03-17T17:12:21;8.15;;;7.65;;
27977;SDS011;15314;49.248;6.968;2024-03-17T17:13:40;9.20;;;8.45;;
27977;SDS011;15314;49.248;6.968;2024-03-17T17:15:00;9.75;;;9.05;;
27977;SDS011;15314;49.248;6.968;2024-03-17T17:17:42;15.55;;;13.85;;
27977;SDS011;15314;49.248;6.968;2024-03-17T17:19:03;16.98;;;15.35;;
27977;SDS011;15314;49.248;6.968;2024-03-17T17:20:23;12.10;;;11.13;;
27977;SDS011;15314;49.248;6.968;2024-03-17T17:21:44;8.55;;;8.05;;
27977;SDS011;15314;49.248;6.968;2024-03-17T17:23:04;8.25;;;7.82;;
27977;SDS011;15314;49.248;6.968;2024-03-17T17:24:24;9.20;;;8.48;;
27977;SDS011;15314;49.248;6.968;2024-03-17T17:25:45;8.02;;;7.63;;
27977;SDS011;15314;49.248;6.968;2024-03-17T17:27:04;7.22;;;6.72;;
27977;SDS011;15314;49.248;6.968;2024-03-17T17:28:28;7.47;;;6.88;;
27977;SDS011;15314;49.248;6.968;2024-03-17T17:29:47;7.90;;;7.40;;
27977;SDS011;15314;49.248;6.968;2024-03-17T17:31:06;7.05;;;6.55;;
27977;SDS011;15314;49.248;6.968;2024-03-17T17:32:25;7.35;;;6.78;;
27977;SDS011;15314;49.248;6.968;2024-03-17T17:33:44;7.28;;;6.88;;
27977;SDS011;15314;49.248;6.968;2024-03-17T17:35:04;8.07;;;7.32;;
27977;SDS011;15314;49.248;6.968;2024-03-17T17:36:24;7.45;;;6.95;;
27977;SDS011;15314;49.248;6.968;2024-03-17T17:37:47;7.15;;;6.63;;
27977;SDS011;15314;49.248;6.968;2024-03-17T17:39:06;7.25;;;6.65;;
27977;SDS011;15314;49.248;6.968;2024-03-17T17:40:27;7.15;;;6.68;;
27977;SDS011;15314;49.248;6.968;2024-03-17T17:41:48;7.53;;;7.13;;
27977;SDS011;15314;49.248;6.968;2024-03-17T17:43:07;7.13;;;6.70;;
27977;SDS011;15314;49.248;6.968;2024-03-17T17:44:27;7.15;;;6.75;;
27977;SDS011;15314;49.248;6.968;2024-03-17T17:45:46;7.78;;;7.28;;
27977;SDS011;15314;49.248;6.968;2024-03-17T17:47:05;8.40;;;7.80;;
27977;SDS011;15314;49.248;6.968;2024-03-17T17:48:24;7.53;;;6.97;;
27977;SDS011;15314;49.248;6.968;2024-03-17T17:49:44;9.10;;;8.30;;
27977;SDS011;15314;49.248;6.968;2024-03-17T17:51:07;8.20;;;7.55;;
27977;SDS011;15314;49.248;6.968;2024-03-17T17:52:27;8.50;;;7.90;;
27977;SDS011;15314;49.248;6.968;2024-03-17T17:53:48;8.55;;;7.80;;
27977;SDS011;15314;49.248;6.968;2024-03-17T17:55:08;8.35;;;7.75;;
27977;SDS011;15314;49.248;6.968;2024-03-17T17:56:28;7.90;;;7.32;;
27977;SDS011;15314;49.248;6.968;2024-03-17T17:57:47;8.13;;;7.55;;
27977;SDS011;15314;49.248;6.968;2024-03-17T17:59:07;7.90;;;7.40;;
27977;SDS011;15314;49.248;6.968;2024-03-17T18:00:26;8.23;;;7.55;;
27977;SDS011;15314;49.248;6.968;2024-03-17T18:01:45;8.00;;;7.38;;
27977;SDS011;15314;49.248;6.968;2024-03-17T18:03:04;7.60;;;7.10;;
27977;SDS011;15314;49.248;6.968;2024-03-17T18:04:24;8.40;;;7.75;;
27977;SDS011;15314;49.248;6.968;2024-03-17T18:05:43;9.23;;;8.60;;
27977;SDS011;15314;49.248;6.968;2024-03-17T18:07:02;8.90;;;8.15;;
27977;SDS011;15314;49.248;6.968;2024-03-17T18:08:22;8.80;;;7.97;;
27977;SDS011;15314;49.248;6.968;2024-03-17T18:09:42;9.35;;;8.65;;
27977;SDS011;15314;49.248;6.968;2024-03-17T18:11:01;9.77;;;8.85;;
27977;SDS011;15314;49.248;6.968;2024-03-17T18:12:21;9.77;;;8.75;;
27977;SDS011;15314;49.248;6.968;2024-03-17T18:13:40;8.77;;;8.07;;
27977;SDS011;15314;49.248;6.968;2024-03-17T18:14:59;8.68;;;8.00;;
27977;SDS011;15314;49.248;6.968;2024-03-17T18:16:19;8.50;;;7.80;;
27977;SDS011;15314;49.248;6.968;2024-03-17T18:17:40;8.35;;;7.75;;
27977;SDS011;15314;49.248;6.968;2024-03-17T18:18:59;8.23;;;7.57;;
27977;SDS011;15314;49.248;6.968;2024-03-17T18:20:19;8.93;;;8.23;;
27977;SDS011;15314;49.248;6.968;2024-03-17T18:21:38;8.90;;;8.30;;
27977;SDS011;15314;49.248;6.968;2024-03-17T18:22:58;9.65;;;8.60;;
27977;SDS011;15314;49.248;6.968;2024-03-17T18:24:16;8.93;;;8.23;;
27977;SDS011;15314;49.248;6.968;2024-03-17T18:25:35;8.63;;;7.93;;
27977;SDS011;15314;49.248;6.968;2024-03-17T18:26:55;8.80;;;8.07;;
27977;SDS011;15314;49.248;6.968;2024-03-17T18:28:14;9.30;;;8.60;;
27977;SDS011;15314;49.248;6.968;2024-03-17T18:29:34;8.80;;;8.02;;
27977;SDS011;15314;49.248;6.968;2024-03-17T18:30:53;8.25;;;7.55;;
27977;SDS011;15314;49.248;6.968;2024-03-17T18:32:12;8.18;;;7.68;;
27977;SDS011;15314;49.248;6.968;2024-03-17T18:33:32;7.90;;;7.45;;
27977;SDS011;15314;49.248;6.968;2024-03-17T18:34:55;8.07;;;7.47;;
27977;SDS011;15314;49.248;6.968;2024-03-17T18:36:14;7.78;;;7.25;;
27977;SDS011;15314;49.248;6.968;2024-03-17T18:37:34;8.65;;;8.05;;
27977;SDS011;15314;49.248;6.968;2024-03-17T18:38:55;7.65;;;7.15;;
27977;SDS011;15314;49.248;6.968;2024-03-17T18:40:14;8.43;;;7.72;;
27977;SDS011;15314;49.248;6.968;2024-03-17T18:41:37;8.23;;;7.70;;
27977;SDS011;15314;49.248;6.968;2024-03-17T18:42:56;9.05;;;8.30;;
27977;SDS011;15314;49.248;6.968;2024-03-17T18:44:15;11.25;;;9.82;;
27977;SDS011;15314;49.248;6.968;2024-03-17T18:45:34;10.95;;;9.85;;
27977;SDS011;15314;49.248;6.968;2024-03-17T18:46:54;12.48;;;10.50;;
27977;SDS011;15314;49.248;6.968;2024-03-17T18:48:13;12.50;;;11.30;;
27977;SDS011;15314;49.248;6.968;2024-03-17T18:49:32;14.48;;;12.68;;
27977;SDS011;15314;49.248;6.968;2024-03-17T18:50:57;14.63;;;13.15;;
27977;SDS011;15314;49.248;6.968;2024-03-17T18:52:17;15.45;;;11.65;;
27977;SDS011;15314;49.248;6.968;2024-03-17T18:53:36;12.07;;;10.80;;
27977;SDS011;15314;49.248;6.968;2024-03-17T18:54:58;13.25;;;10.88;;
27977;SDS011;15314;49.248;6.968;2024-03-17T18:56:18;12.00;;;10.80;;
27977;SDS011;15314;49.248;6.968;2024-03-17T18:57:41;10.75;;;9.55;;
27977;SDS011;15314;49.248;6.968;2024-03-17T18:59:00;12.57;;;10.38;;
27977;SDS011;15314;49.248;6.968;2024-03-17T19:00:20;10.82;;;9.75;;
27977;SDS011;15314;49.248;6.968;2024-03-17T19:01:39;10.60;;;9.63;;
27977;SDS011;15314;49.248;6.968;2024-03-17T19:02:59;10.82;;;9.82;;
27977;SDS011;15314;49.248;6.968;2024-03-17T19:04:19;11.63;;;10.43;;
27977;SDS011;15314;49.248;6.968;2024-03-17T19:05:37;10.07;;;9.18;;
27977;SDS011;15314;49.248;6.968;2024-03-17T19:07:02;11.88;;;10.80;;
27977;SDS011;15314;49.248;6.968;2024-03-17T19:08:25;11.77;;;10.23;;
27977;SDS011;15314;49.248;6.968;2024-03-17T19:09:45;10.10;;;9.20;;
27977;SDS011;15314;49.248;6.968;2024-03-17T19:11:04;9.70;;;8.85;;
27977;SDS011;15314;49.248;6.968;2024-03-17T19:12:24;10.80;;;9.65;;
27977;SDS011;15314;49.248;6.968;2024-03-17T19:13:43;9.00;;;8.27;;
27977;SDS011;15314;49.248;6.968;2024-03-17T19:15:03;9.85;;;8.50;;
27977;SDS011;15314;49.248;6.968;2024-03-17T19:16:25;9.27;;;8.50;;
27977;SDS011;15314;49.248;6.968;2024-03-17T19:17:44;9.35;;;8.00;;
27977;SDS011;15314;49.248;6.968;2024-03-17T19:19:04;9.63;;;8.82;;
27977;SDS011;15314;49.248;6.968;2024-03-17T19:20:23;8.55;;;7.85;;
27977;SDS011;15314;49.248;6.968;2024-03-17T19:21:42;7.82;;;7.32;;
27977;SDS011;15314;49.248;6.968;2024-03-17T19:23:06;8.35;;;7.60;;
27977;SDS011;15314;49.248;6.968;2024-03-17T19:24:25;7.85;;;7.25;;
27977;SDS011;15314;49.248;6.968;2024-03-17T19:25:45;8.40;;;7.80;;
27977;SDS011;15314;49.248;6.968;2024-03-17T19:27:04;12.27;;;8.73;;
27977;SDS011;15314;49.248;6.968;2024-03-17T19:28:24;9.27;;;8.63;;
27977;SDS011;15314;49.248;6.968;2024-03-17T19:29:44;10.00;;;9.20;;
27977;SDS011;15314;49.248;6.968;2024-03-17T19:31:03;9.27;;;8.45;;
27977;SDS011;15314;49.248;6.968;2024-03-17T19:32:28;10.27;;;8.73;;
27977;SDS011;15314;49.248;6.968;2024-03-17T19:33:48;10.65;;;9.15;;
27977;SDS011;15314;49.248;6.968;2024-03-17T19:35:08;19.05;;;15.07;;
27977;SDS011;15314;49.248;6.968;2024-03-17T19:36:27;11.00;;;10.00;;
27977;SDS011;15314;49.248;6.968;2024-03-17T19:37:46;10.43;;;9.52;;
27977;SDS011;15314;49.248;6.968;2024-03-17T19:39:08;9.60;;;8.80;;
27977;SDS011;15314;49.248;6.968;2024-03-17T19:40:29;10.60;;;9.50;;
27977;SDS011;15314;49.248;6.968;2024-03-17T19:41:48;10.35;;;9.32;;
27977;SDS011;15314;49.248;6.968;2024-03-17T19:43:07;9.65;;;8.85;;
27977;SDS011;15314;49.248;6.968;2024-03-17T19:44:27;11.25;;;10.18;;
27977;SDS011;15314;49.248;6.968;2024-03-17T19:45:55;9.90;;;9.10;;
27977;SDS011;15314;49.248;6.968;2024-03-17T19:47:31;13.00;;;11.68;;
27977;SDS011;15314;49.248;6.968;2024-03-17T19:48:51;12.23;;;10.27;;
27977;SDS011;15314;49.248;6.968;2024-03-17T19:50:12;9.93;;;9.02;;
27977;SDS011;15314;49.248;6.968;2024-03-17T19:51:32;10.10;;;9.30;;
27977;SDS011;15314;49.248;6.968;2024-03-17T19:52:51;10.45;;;9.50;;
27977;SDS011;15314;49.248;6.968;2024-03-17T19:54:10;10.52;;;9.60;;
27977;SDS011;15314;49.248;6.968;2024-03-17T19:55:31;9.95;;;9.02;;
27977;SDS011;15314;49.248;6.968;2024-03-17T19:56:50;10.05;;;9.13;;
27977;SDS011;15314;49.248;6.968;2024-03-17T19:58:09;9.30;;;8.68;;
27977;SDS011;15314;49.248;6.968;2024-03-17T19:59:29;10.23;;;9.48;;
27977;SDS011;15314;49.248;6.968;2024-03-17T20:00:49;10.13;;;9.32;;
27977;SDS011;15314;49.248;6.968;2024-03-17T20:02:08;10.40;;;9.48;;
27977;SDS011;15314;49.248;6.968;2024-03-17T20:04:52;10.55;;;9.75;;
27977;SDS011;15314;49.248;6.968;2024-03-17T20:07:40;10.35;;;9.50;;
27977;SDS011;15314;49.248;6.968;2024-03-17T20:08:59;10.63;;;9.80;;
27977;SDS011;15314;49.248;6.968;2024-03-17T20:10:19;10.13;;;9.32;;
27977;SDS011;15314;49.248;6.968;2024-03-17T20:11:38;9.85;;;8.82;;
27977;SDS011;15314;49.248;6.968;2024-03-17T20:12:58;9.88;;;8.93;;
27977;SDS011;15314;49.248;6.968;2024-03-17T20:14:17;11.63;;;9.90;;
27977;SDS011;15314;49.248;6.968;2024-03-17T20:15:39;12.00;;;10.68;;
27977;SDS011;15314;49.248;6.968;2024-03-17T20:16:58;11.13;;;10.23;;
27977;SDS011;15314;49.248;6.968;2024-03-17T20:18:17;9.75;;;9.00;;
27977;SDS011;15314;49.248;6.968;2024-03-17T20:19:36;13.75;;;10.20;;
27977;SDS011;15314;49.248;6.968;2024-03-17T20:20:58;10.30;;;9.35;;
27977;SDS011;15314;49.248;6.968;2024-03-17T20:22:17;10.52;;;9.45;;
27977;SDS011;15314;49.248;6.968;2024-03-17T20:23:36;11.07;;;10.00;;
27977;SDS011;15314;49.248;6.968;2024-03-17T20:24:55;10.45;;;9.40;;
27977;SDS011;15314;49.248;6.968;2024-03-17T20:26:20;10.43;;;9.52;;
27977;SDS011;15314;49.248;6.968;2024-03-17T20:29:00;9.90;;;8.90;;
27977;SDS011;15314;49.248;6.968;2024-03-17T20:30:22;10.13;;;9.30;;
27977;SDS011;15314;49.248;6.968;2024-03-17T20:31:42;11.10;;;9.98;;
27977;SDS011;15314;49.248;6.968;2024-03-17T20:33:01;9.68;;;8.80;;
27977;SDS011;15314;49.248;6.968;2024-03-17T20:34:20;10.30;;;9.50;;
27977;SDS011;15314;49.248;6.968;2024-03-17T20:35:39;11.10;;;10.15;;
27977;SDS011;15314;49.248;6.968;2024-03-17T20:36:59;12.18;;;10.25;;
27977;SDS011;15314;49.248;6.968;2024-03-17T20:38:19;10.60;;;9.60;;
27977;SDS011;15314;49.248;6.968;2024-03-17T20:39:39;11.60;;;10.60;;
27977;SDS011;15314;49.248;6.968;2024-03-17T20:41:00;12.13;;;10.68;;
27977;SDS011;15314;49.248;6.968;2024-03-17T20:42:19;11.05;;;10.00;;
27977;SDS011;15314;49.248;6.968;2024-03-17T20:43:38;11.85;;;10.95;;
27977;SDS011;15314;49.248;6.968;2024-03-17T20:45:01;10.50;;;9.52;;
27977;SDS011;15314;49.248;6.968;2024-03-17T20:46:22;11.13;;;10.18;;
27977;SDS011;15314;49.248;6.968;2024-03-17T20:47:41;10.48;;;9.40;;
27977;SDS011;15314;49.248;6.968;2024-03-17T20:49:04;10.43;;;9.55;;
27977;SDS011;15314;49.248;6.968;2024-03-17T20:50:23;10.55;;;9.73;;
27977;SDS011;15314;49.248;6.968;2024-03-17T20:51:43;10.00;;;9.23;;
27977;SDS011;15314;49.248;6.968;2024-03-17T20:53:02;10.60;;;9.63;;
27977;SDS011;15314;49.248;6.968;2024-03-17T20:54:21;10.20;;;9.27;;
27977;SDS011;15314;49.248;6.968;2024-03-17T20:55:42;11.02;;;10.10;;
27977;SDS011;15314;49.248;6.968;2024-03-17T20:57:01;12.52;;;10.15;;
27977;SDS011;15314;49.248;6.968;2024-03-17T20:58:21;11.68;;;10.48;;
27977;SDS011;15314;49.248;6.968;2024-03-17T20:59:40;12.23;;;11.05;;
27977;SDS011;15314;49.248;6.968;2024-03-17T21:01:00;11.25;;;10.35;;
27977;SDS011;15314;49.248;6.968;2024-03-17T21:02:19;11.60;;;10.60;;
27977;SDS011;15314;49.248;6.968;2024-03-17T21:03:38;12.48;;;11.45;;
27977;SDS011;15314;49.248;6.968;2024-03-17T21:04:59;11.50;;;10.45;;
27977;SDS011;15314;49.248;6.968;2024-03-17T21:06:18;11.55;;;10.63;;
27977;SDS011;15314;49.248;6.968;2024-03-17T21:07:38;11.63;;;10.57;;
27977;SDS011;15314;49.248;6.968;2024-03-17T21:08:57;11.95;;;10.88;;
27977;SDS011;15314;49.248;6.968;2024-03-17T21:10:16;12.43;;;11.15;;
27977;SDS011;15314;49.248;6.968;2024-03-17T21:11:36;11.45;;;10.50;;
27977;SDS011;15314;49.248;6.968;2024-03-17T21:13:00;11.23;;;10.00;;
27977;SDS011;15314;49.248;6.968;2024-03-17T21:14:19;10.73;;;9.82;;
27977;SDS011;15314;49.248;6.968;2024-03-17T21:15:38;13.05;;;9.63;;
27977;SDS011;15314;49.248;6.968;2024-03-17T21:16:58;12.35;;;9.68;;
27977;SDS011;15314;49.248;6.968;2024-03-17T21:18:17;10.00;;;9.10;;
27977;SDS011;15314;49.248;6.968;2024-03-17T21:19:39;10.23;;;9.43;;
27977;SDS011;15314;49.248;6.968;2024-03-17T21:21:05;9.77;;;9.05;;
27977;SDS011;15314;49.248;6.968;2024-03-17T21:22:25;9.98;;;9.18;;
27977;SDS011;15314;49.248;6.968;2024-03-17T21:23:44;9.98;;;9.23;;
27977;SDS011;15314;49.248;6.968;2024-03-17T21:25:03;10.80;;;9.90;;
27977;SDS011;15314;49.248;6.968;2024-03-17T21:26:26;10.48;;;9.52;;
27977;SDS011;15314;49.248;6.968;2024-03-17T21:27:46;10.25;;;9.40;;
27977;SDS011;15314;49.248;6.968;2024-03-17T21:30:27;9.93;;;9.00;;
27977;SDS011;15314;49.248;6.968;2024-03-17T21:31:49;10.20;;;9.23;;
27977;SDS011;15314;49.248;6.968;2024-03-17T21:33:08;10.02;;;9.32;;
27977;SDS011;15314;49.248;6.968;2024-03-17T21:34:27;10.70;;;9.80;;
27977;SDS011;15314;49.248;6.968;2024-03-17T21:35:47;11.32;;;10.40;;
27977;SDS011;15314;49.248;6.968;2024-03-17T21:37:06;11.65;;;10.65;;
27977;SDS011;15314;49.248;6.968;2024-03-17T21:38:25;11.32;;;10.52;;
27977;SDS011;15314;49.248;6.968;2024-03-17T21:39:45;11.70;;;10.43;;
27977;SDS011;15314;49.248;6.968;2024-03-17T21:41:05;11.55;;;10.65;;
27977;SDS011;15314;49.248;6.968;2024-03-17T21:42:33;12.73;;;11.60;;
27977;SDS011;15314;49.248;6.968;2024-03-17T21:43:52;12.57;;;11.57;;
27977;SDS011;15314;49.248;6.968;2024-03-17T21:45:11;12.15;;;11.15;;
27977;SDS011;15314;49.248;6.968;2024-03-17T21:46:31;12.68;;;11.48;;
27977;SDS011;15314;49.248;6.968;2024-03-17T21:47:51;12.82;;;11.68;;
27977;SDS011;15314;49.248;6.968;2024-03-17T21:49:10;14.02;;;12.73;;
27977;SDS011;15314;49.248;6.968;2024-03-17T21:50:29;12.55;;;11.55;;
27977;SDS011;15314;49.248;6.968;2024-03-17T21:51:48;12.38;;;11.23;;
27977;SDS011;15314;49.248;6.968;2024-03-17T21:53:07;12.20;;;11.27;;
27977;SDS011;15314;49.248;6.968;2024-03-17T21:54:27;13.25;;;12.25;;
27977;SDS011;15314;49.248;6.968;2024-03-17T21:55:53;12.25;;;11.25;;
27977;SDS011;15314;49.248;6.968;2024-03-17T21:57:24;12.20;;;11.23;;
27977;SDS011;15314;49.248;6.968;2024-03-17T21:58:43;12.23;;;11.13;;
27977;SDS011;15314;49.248;6.968;2024-03-17T22:00:06;12.48;;;11.35;;
27977;SDS011;15314;49.248;6.968;2024-03-17T22:01:28;11.70;;;10.63;;
27977;SDS011;15314;49.248;6.968;2024-03-17T22:02:47;13.88;;;12.60;;
27977;SDS011;15314;49.248;6.968;2024-03-17T22:04:06;11.95;;;11.10;;